ADDS METAR Data INFO
IDs: Format: Raw Decoded Include TAF

Data at: 0140 UTC 20 Feb 2018

KRSN 200135Z AUTO 18009KT 10SM CLR 22/15 A3004 RMK AO2 T02170145
KRSN 200115Z AUTO 18007KT 10SM CLR 22/15 A3004 RMK AO2 T02160145
KRSN 200055Z AUTO 18008KT 10SM CLR 22/14 A3004 RMK AO2 T02210143
KRSN 200035Z AUTO 17008KT 10SM CLR 23/14 A3004 RMK AO2 T02250140
KRSN 200015Z AUTO 18007KT 10SM SCT060 23/14 A3003 RMK AO2 T02330138
KRSN 192355Z AUTO 18008KT 10SM SCT060 24/14 A3003 RMK AO2 T02380140 10277 20238
KRSN 192335Z AUTO 18008KT 10SM SCT060 25/14 A3002 RMK AO2 T02490136
KRSN 192315Z AUTO 18012KT 10SM SCT060 SCT070 26/14 A3002 RMK AO2 T02550136
KRSN 192255Z AUTO 19014G21KT 10SM SCT055 26/14 A3002 RMK AO2 T02560140
KRSN 192235Z AUTO 19013G21KT 10SM SCT055 26/14 A3001 RMK AO2 T02620137
KRSN 192215Z AUTO 17013G23KT 150V210 10SM SCT055 27/13 A3001 RMK AO2 T02670129
KRSN 192155Z AUTO 20017G24KT 10SM SCT050 27/13 A3001 RMK AO2 T02720125
KRSN 192135Z AUTO 18015G19KT 10SM SCT050 28/13 A3001 RMK AO2 T02760129
KRSN 192115Z AUTO 19022G30KT 10SM SCT050 27/12 A3001 RMK AO2 T02720122
KRSN 192055Z AUTO 18014G23KT 10SM CLR 27/13 A3001 RMK AO2 T02720127
KRSN 192035Z AUTO 19022G29KT 10SM SCT050 27/12 A3001 RMK AO2 T02650122
KRSN 192015Z AUTO 19019G26KT 10SM SCT048 SCT055 27/13 A3002 RMK AO2 T02710127
KRSN 191955Z AUTO 18012G19KT 10SM SCT046 26/14 A3002 RMK AO2 T02570140
KRSN 191935Z AUTO 17020G28KT 10SM SCT042 SCT048 26/14 A3003 RMK AO2 T02620143
KRSN 191915Z AUTO 19018G24KT 10SM SCT043 26/15 A3004 RMK AO2 T02620145
KRSN 191855Z AUTO 18022G27KT 10SM SCT041 26/14 A3006 RMK AO2 T02560139
KRSN 191835Z AUTO 18016G23KT 10SM BKN039 25/15 A3007 RMK AO2 T02510149
KRSN 191815Z AUTO 18013G22KT 10SM BKN037 24/15 A3008 RMK AO2 T02410148
KRSN 191755Z AUTO 20017G21KT 10SM SCT030 BKN037 24/15 A3009 RMK AO2 T02440153 10245 20177
KRSN 191735Z AUTO 18013G17KT 10SM BKN028 BKN033 23/16 A3010 RMK AO2 T02300160
KRSN 191715Z AUTO 19016G23KT 10SM BKN024 23/16 A3011 RMK AO2 T02290163
KRSN 191655Z AUTO 18016G21KT 10SM SCT017 BKN024 BKN029 22/16 A3012 RMK AO2 T02240164
KRSN 191635Z AUTO 20013G19KT 10SM BKN017 BKN024 OVC028 21/17 A3012 RMK AO2 T02140169
KRSN 191615Z AUTO 17012G16KT 10SM BKN014 OVC021 21/17 A3013 RMK AO2 T02110172
KRSN 191555Z AUTO 18010KT 10SM OVC014 21/17 A3013 RMK AO2 T02050173
KRSN 191535Z AUTO 19012G20KT 10SM BKN010 OVC014 20/17 A3013 RMK AO2 T02000172
KRSN 191515Z AUTO 17012KT 10SM BKN008 OVC012 20/17 A3013 RMK AO2 T01950174
KRSN 191455Z AUTO 17009KT 10SM OVC008 19/17 A3012 RMK AO2 T01900174
KRSN 191435Z AUTO 17008KT 10SM OVC006 19/17 A3012 RMK AO2 T01850172
KRSN 191415Z AUTO 16010KT 10SM OVC006 18/17 A3012 RMK AO2 T01820170
KRSN 191355Z AUTO 17007KT 10SM OVC006 18/17 A3011 RMK AO2 T01800170
KRSN 191335Z AUTO 17009KT 10SM OVC006 18/17 A3011 RMK AO2 T01800170
KRSN 191315Z AUTO 17008KT 10SM OVC006 18/17 A3011 RMK AO2 T01790169
KRSN 191255Z AUTO 18009KT 10SM OVC004 18/17 A3010 RMK AO2 T01780169
KRSN 191235Z AUTO 18008KT 10SM OVC004 18/17 A3010 RMK AO2 T01780169
KRSN 191215Z AUTO 17010KT 10SM OVC004 18/17 A3009 RMK AO2 T01770170
KRSN 191155Z AUTO 18008KT 10SM OVC004 18/17 A3010 RMK AO2 T01770168 10185 20172
KRSN 191135Z AUTO 17009KT 10SM OVC004 18/17 A3009 RMK AO2 T01770168
KRSN 191115Z AUTO 17008KT 10SM OVC004 18/17 A3009 RMK AO2 T01750167
KRSN 191055Z AUTO 17006KT 7SM OVC004 18/17 A3009 RMK AO2 T01750167
KRSN 191035Z AUTO 17006KT 7SM OVC004 17/17 A3009 RMK AO2 T01720165
KRSN 191015Z AUTO 16007KT 10SM BKN009 18/17 A3008 RMK AO2 T01750165
KRSN 190955Z AUTO 17006KT 10SM OVC009 18/17 A3008 RMK AO2 T01790167
KRSN 190935Z AUTO 18007KT 10SM OVC011 18/17 A3008 RMK AO2 T01800168
KRSN 190915Z AUTO 17008KT 10SM OVC011 18/17 A3008 RMK AO2 T01810167
KRSN 190855Z AUTO 18008KT 10SM OVC011 18/17 A3008 RMK AO2 T01810168
KRSN 190835Z AUTO 19008KT 10SM OVC011 19/17 A3008 RMK AO2 T01850167
KRSN 190815Z AUTO 20009KT 10SM OVC009 19/17 A3008 RMK AO2 T01850167
KRSN 190755Z AUTO 20009KT 10SM OVC009 19/17 A3008 RMK AO2 T01850170
KRSN 190735Z AUTO 19010KT 10SM OVC007 18/17 A3008 RMK AO2 T01820168
KRSN 190715Z AUTO 19012G17KT 10SM OVC007 18/17 A3007 RMK AO2 T01810170
KRSN 190655Z AUTO 20009KT 10SM BKN009 18/17 A3007 RMK AO2 T01770166
KRSN 190635Z AUTO 20009KT 10SM SCT009 18/17 A3007 RMK AO2 T01770165
KRSN 190615Z AUTO 19009KT 10SM CLR 18/17 A3007 RMK AO2 T01770165
KRSN 190555Z AUTO 20009KT 10SM CLR 18/16 A3008 RMK AO2 T01750164 10175 20148 401750081
KRSN 190535Z AUTO 19007KT 10SM CLR 17/16 A3008 RMK AO2 T01680159
KRSN 190515Z AUTO 19007KT 10SM CLR 17/16 A3008 RMK AO2 T01650156
KRSN 190455Z AUTO 18005KT 10SM CLR 16/15 A3008 RMK AO2 T01630154
KRSN 190435Z AUTO 17006KT 10SM CLR 17/16 A3008 RMK AO2 T01650155
KRSN 190415Z AUTO 17007KT 10SM SCT008 16/15 A3008 RMK AO2 T01630154
KRSN 190355Z AUTO 18008KT 10SM SCT008 16/16 A3008 RMK AO2 T01640155
KRSN 190335Z AUTO 16009KT 10SM SCT006 16/16 A3007 RMK AO2 T01640155
KRSN 190315Z AUTO 17008KT 10SM SCT006 16/15 A3007 RMK AO2 T01620154
KRSN 190255Z AUTO 16007KT 10SM CLR 16/15 A3008 RMK AO2 T01600151
KRSN 190235Z AUTO 16008KT 10SM CLR 16/15 A3008 RMK AO2 T01600151
KRSN 190215Z AUTO 16007KT 10SM CLR 16/15 A3008 RMK AO2 T01610152
KRSN 190155Z AUTO 16005KT 10SM CLR 16/15 A3008 RMK AO2 T01600151 PNO
KRSN 190135Z AUTO 16006KT 10SM CLR 16/15 A3009 RMK AO2 T01600150
KRSN 190115Z AUTO 15004KT 10SM CLR 16/15 A3009 RMK AO2 T01570147
KRSN 190055Z AUTO 13004KT 10SM CLR 15/14 A3009 RMK AO2 T01490140
KRSN 190035Z AUTO 00000KT 10SM CLR 15/14 A3010 RMK AO2 T01520141
KRSN 190015Z AUTO 00000KT 10SM CLR 16/14 A3010 RMK AO2 T01550142
KRSN 182355Z AUTO 00000KT 10SM CLR 16/14 A3011 RMK AO2 T01610142 10167 20105
KRSN 182335Z AUTO 00000KT 10SM CLR 17/14 A3011 RMK AO2 T01650141
KRSN 182315Z AUTO 00000KT 10SM CLR 17/14 A3011 RMK AO2 T01670141
KRSN 182255Z AUTO 17003KT 10SM BKN011 16/14 A3012 RMK AO2 T01630139
KRSN 182235Z AUTO 14003KT 10SM OVC011 16/14 A3012 RMK AO2 T01600136
KRSN 182215Z AUTO 15003KT 10SM OVC009 16/13 A3013 RMK AO2 T01590134
KRSN 182155Z AUTO 18006KT 10SM OVC009 16/13 A3013 RMK AO2 T01560132
KRSN 182135Z AUTO 17007KT 10SM OVC007 15/13 A3013 RMK AO2 T01530130
KRSN 182115Z AUTO 18005KT 10SM OVC007 15/13 A3014 RMK AO2 T01520130
KRSN 182055Z AUTO 17007KT 10SM OVC007 15/13 A3014 RMK AO2 T01460126
KRSN 182035Z AUTO 18007KT 10SM OVC005 14/12 A3014 RMK AO2 T01440124
KRSN 182015Z AUTO 16006KT 10SM OVC005 14/12 A3015 RMK AO2 T01390123
KRSN 181955Z AUTO 16004KT 10SM OVC003 13/12 A3016 RMK AO2 T01300117
KRSN 181935Z AUTO 15004KT 10SM OVC003 12/11 A3017 RMK AO2 T01230113
KRSN 181915Z AUTO 17006KT 10SM OVC003 12/11 A3018 RMK AO2 T01190110
KRSN 181855Z AUTO 14004KT 10SM OVC003 11/11 A3019 RMK AO2 T01140105
KRSN 181835Z AUTO 14005KT 10SM OVC003 11/10 A3020 RMK AO2 T01110101
KRSN 181815Z AUTO 14006KT 10SM OVC003 11/10 A3022 RMK AO2 T01100101
KRSN 181755Z AUTO 14005KT 7SM OVC003 11/10 A3023 RMK AO2 T01050096 10106 20081
KRSN 181735Z AUTO 00000KT 7SM OVC003 10/10 A3023 RMK AO2 T01020095
KRSN 181715Z AUTO 00000KT 5SM BR OVC003 10/09 A3024 RMK AO2 T01000092
KRSN 181655Z AUTO 00000KT 7SM OVC003 10/09 A3024 RMK AO2 T00990091
KRSN 181635Z AUTO 00000KT 5SM BR OVC003 10/09 A3025 RMK AO2 T00950086
KRSN 181615Z AUTO 00000KT 4SM BR OVC003 10/09 A3025 RMK AO2 T00950087
KRSN 181555Z AUTO 00000KT 7SM OVC003 09/08 A3024 RMK AO2 T00900084
KRSN 181535Z AUTO 00000KT 5SM BR OVC003 09/08 A3025 RMK AO2 T00880081
KRSN 181515Z AUTO 00000KT 4SM BR OVC003 09/08 A3025 RMK AO2 T00870080
KRSN 181455Z AUTO 00000KT 3SM -RA OVC003 09/08 A3024 RMK AO2 T00850078
KRSN 181435Z AUTO 00000KT 2 1/2SM BR OVC003 09/08 A3025 RMK AO2 T00850077
KRSN 181415Z AUTO 00000KT 2 1/2SM -DZ OVC003 08/08 A3025 RMK AO2 T00840076
KRSN 181355Z AUTO 00000KT 2 1/2SM -RA OVC005 08/08 A3024 RMK AO2 T00830076